sensor_id;sensor_type;location;lat;lon;timestamp;pressure;altitude;pressure_sealevel;temperature
40199;BMP280;25906;43.536;26.068;2023-09-07T00:00:51;99481.53;;;20.26
40199;BMP280;25906;43.536;26.068;2023-09-07T00:03:37;99470.41;;;20.13
40199;BMP280;25906;43.536;26.068;2023-09-07T00:06:25;99471.22;;;20.19
40199;BMP280;25906;43.536;26.068;2023-09-07T00:09:12;99474.47;;;20.08
40199;BMP280;25906;43.536;26.068;2023-09-07T00:11:58;99482.03;;;20.04
40199;BMP280;25906;43.536;26.068;2023-09-07T00:14:44;99472.75;;;20.05
40199;BMP280;25906;43.536;26.068;2023-09-07T00:17:30;99464.88;;;20.02
40199;BMP280;25906;43.536;26.068;2023-09-07T00:20:15;99462.13;;;19.96
40199;BMP280;25906;43.536;26.068;2023-09-07T00:23:01;99462.13;;;19.96
40199;BMP280;25906;43.536;26.068;2023-09-07T00:25:47;99452.00;;;20.06
40199;BMP280;25906;43.536;26.068;2023-09-07T00:28:32;99453.59;;;20.18
40199;BMP280;25906;43.536;26.068;2023-09-07T00:31:18;99457.63;;;20.08
40199;BMP280;25906;43.536;26.068;2023-09-07T00:34:03;99462.00;;;20.05
40199;BMP280;25906;43.536;26.068;2023-09-07T00:36:49;99462.19;;;20.02
40199;BMP280;25906;43.536;26.068;2023-09-07T00:39:34;99455.47;;;20.12
40199;BMP280;25906;43.536;26.068;2023-09-07T00:42:20;99456.63;;;20.05
40199;BMP280;25906;43.536;26.068;2023-09-07T00:45:06;99447.53;;;20.03
40199;BMP280;25906;43.536;26.068;2023-09-07T00:47:51;99456.16;;;20.07
40199;BMP280;25906;43.536;26.068;2023-09-07T00:50:37;99451.31;;;20.11
40199;BMP280;25906;43.536;26.068;2023-09-07T00:53:23;99449.84;;;20.10
40199;BMP280;25906;43.536;26.068;2023-09-07T00:56:10;99451.03;;;20.09
40199;BMP280;25906;43.536;26.068;2023-09-07T00:58:56;99453.72;;;20.09
40199;BMP280;25906;43.536;26.068;2023-09-07T01:01:44;99449.50;;;20.02
40199;BMP280;25906;43.536;26.068;2023-09-07T01:04:30;99447.72;;;19.99
40199;BMP280;25906;43.536;26.068;2023-09-07T01:07:30;99453.09;;;19.99
40199;BMP280;25906;43.536;26.068;2023-09-07T01:10:17;99448.16;;;19.92
40199;BMP280;25906;43.536;26.068;2023-09-07T01:13:04;99449.31;;;19.86
40199;BMP280;25906;43.536;26.068;2023-09-07T01:15:50;99446.66;;;19.91
40199;BMP280;25906;43.536;26.068;2023-09-07T01:18:36;99446.63;;;19.86
40199;BMP280;25906;43.536;26.068;2023-09-07T01:21:23;99447.06;;;19.84
40199;BMP280;25906;43.536;26.068;2023-09-07T01:24:10;99441.91;;;19.81
40199;BMP280;25906;43.536;26.068;2023-09-07T01:26:59;99445.19;;;19.90
40199;BMP280;25906;43.536;26.068;2023-09-07T01:29:45;99443.97;;;19.71
40199;BMP280;25906;43.536;26.068;2023-09-07T01:32:30;99437.53;;;19.63
40199;BMP280;25906;43.536;26.068;2023-09-07T01:35:16;99439.00;;;19.64
40199;BMP280;25906;43.536;26.068;2023-09-07T01:38:01;99449.16;;;19.60
40199;BMP280;25906;43.536;26.068;2023-09-07T01:40:47;99451.47;;;19.67
40199;BMP280;25906;43.536;26.068;2023-09-07T01:43:33;99450.22;;;19.83
40199;BMP280;25906;43.536;26.068;2023-09-07T01:46:18;99458.78;;;19.81
40199;BMP280;25906;43.536;26.068;2023-09-07T01:49:04;99451.50;;;19.87
40199;BMP280;25906;43.536;26.068;2023-09-07T01:51:51;99450.56;;;19.90
40199;BMP280;25906;43.536;26.068;2023-09-07T01:54:37;99458.69;;;19.96
40199;BMP280;25906;43.536;26.068;2023-09-07T01:57:23;99450.56;;;19.90
40199;BMP280;25906;43.536;26.068;2023-09-07T02:00:08;99453.75;;;19.89
40199;BMP280;25906;43.536;26.068;2023-09-07T02:02:54;99451.44;;;19.82
40199;BMP280;25906;43.536;26.068;2023-09-07T02:05:40;99454.31;;;19.78
40199;BMP280;25906;43.536;26.068;2023-09-07T02:08:25;99458.78;;;19.81
40199;BMP280;25906;43.536;26.068;2023-09-07T02:11:11;99453.75;;;19.89
40199;BMP280;25906;43.536;26.068;2023-09-07T02:13:56;99455.69;;;19.88
40199;BMP280;25906;43.536;26.068;2023-09-07T02:16:42;99451.06;;;19.54
40199;BMP280;25906;43.536;26.068;2023-09-07T02:19:27;99456.13;;;19.87
40199;BMP280;25906;43.536;26.068;2023-09-07T02:22:13;99455.28;;;19.61
40199;BMP280;25906;43.536;26.068;2023-09-07T02:24:58;99453.22;;;19.70
40199;BMP280;25906;43.536;26.068;2023-09-07T02:27:44;99455.22;;;19.55
40199;BMP280;25906;43.536;26.068;2023-09-07T02:30:29;99444.88;;;19.48
40199;BMP280;25906;43.536;26.068;2023-09-07T02:33:15;99446.47;;;19.60
40199;BMP280;25906;43.536;26.068;2023-09-07T02:36:00;99451.91;;;19.45
40199;BMP280;25906;43.536;26.068;2023-09-07T02:38:46;99450.00;;;19.31
40199;BMP280;25906;43.536;26.068;2023-09-07T02:41:31;99447.84;;;19.21
40199;BMP280;25906;43.536;26.068;2023-09-07T02:44:17;99454.09;;;18.98
40199;BMP280;25906;43.536;26.068;2023-09-07T02:47:02;99462.84;;;19.13
40199;BMP280;25906;43.536;26.068;2023-09-07T02:49:48;99450.91;;;19.28
40199;BMP280;25906;43.536;26.068;2023-09-07T02:52:33;99456.75;;;19.27
40199;BMP280;25906;43.536;26.068;2023-09-07T02:55:19;99462.78;;;19.07
40199;BMP280;25906;43.536;26.068;2023-09-07T02:58:04;99460.81;;;19.37
40199;BMP280;25906;43.536;26.068;2023-09-07T03:00:50;99459.06;;;19.34
40199;BMP280;25906;43.536;26.068;2023-09-07T03:03:36;99457.69;;;19.24
40199;BMP280;25906;43.536;26.068;2023-09-07T03:06:21;99454.81;;;19.13
40199;BMP280;25906;43.536;26.068;2023-09-07T03:09:07;99461.56;;;19.23
40199;BMP280;25906;43.536;26.068;2023-09-07T03:11:54;99453.31;;;19.12
40199;BMP280;25906;43.536;26.068;2023-09-07T03:14:43;99451.66;;;18.85
40199;BMP280;25906;43.536;26.068;2023-09-07T03:17:29;99459.72;;;19.00
40199;BMP280;25906;43.536;26.068;2023-09-07T03:20:14;99464.06;;;19.12
40199;BMP280;25906;43.536;26.068;2023-09-07T03:23:01;99464.72;;;19.07
40199;BMP280;25906;43.536;26.068;2023-09-07T03:25:48;99468.31;;;19.04
40199;BMP280;25906;43.536;26.068;2023-09-07T03:28:33;99478.16;;;18.92
40199;BMP280;25906;43.536;26.068;2023-09-07T03:31:18;99480.09;;;18.92
40199;BMP280;25906;43.536;26.068;2023-09-07T03:34:04;99488.31;;;18.88
40199;BMP280;25906;43.536;26.068;2023-09-07T03:36:50;99485.88;;;18.90
40199;BMP280;25906;43.536;26.068;2023-09-07T03:39:36;99485.59;;;18.73
40199;BMP280;25906;43.536;26.068;2023-09-07T03:42:22;99490.56;;;18.66
40199;BMP280;25906;43.536;26.068;2023-09-07T03:45:08;99496.41;;;18.64
40199;BMP280;25906;43.536;26.068;2023-09-07T03:47:53;99500.56;;;18.65
40199;BMP280;25906;43.536;26.068;2023-09-07T03:50:39;99497.88;;;18.65
40199;BMP280;25906;43.536;26.068;2023-09-07T03:53:24;99498.94;;;18.44
40199;BMP280;25906;43.536;26.068;2023-09-07T03:56:10;99501.41;;;18.48
40199;BMP280;25906;43.536;26.068;2023-09-07T03:58:56;99502.47;;;18.26
40199;BMP280;25906;43.536;26.068;2023-09-07T04:01:41;99506.41;;;18.40
40199;BMP280;25906;43.536;26.068;2023-09-07T04:04:26;99514.00;;;18.18
40199;BMP280;25906;43.536;26.068;2023-09-07T04:07:12;99513.38;;;17.99
40199;BMP280;25906;43.536;26.068;2023-09-07T04:09:57;99522.50;;;17.84
40199;BMP280;25906;43.536;26.068;2023-09-07T04:12:43;99521.53;;;18.05
40199;BMP280;25906;43.536;26.068;2023-09-07T04:15:28;99520.94;;;18.24
40199;BMP280;25906;43.536;26.068;2023-09-07T04:18:16;99529.09;;;18.06
40199;BMP280;25906;43.536;26.068;2023-09-07T04:21:06;99523.47;;;18.28
40199;BMP280;25906;43.536;26.068;2023-09-07T04:23:51;99529.22;;;18.36
40199;BMP280;25906;43.536;26.068;2023-09-07T04:26:37;99534.41;;;18.39
40199;BMP280;25906;43.536;26.068;2023-09-07T04:29:23;99530.53;;;18.40
40199;BMP280;25906;43.536;26.068;2023-09-07T04:32:08;99535.56;;;18.23
40199;BMP280;25906;43.536;26.068;2023-09-07T04:34:57;99531.84;;;18.21
40199;BMP280;25906;43.536;26.068;2023-09-07T04:37:45;99535.44;;;18.42
40199;BMP280;25906;43.536;26.068;2023-09-07T04:40:30;99537.75;;;18.25
40199;BMP280;25906;43.536;26.068;2023-09-07T04:43:16;99536.34;;;18.15
40199;BMP280;25906;43.536;26.068;2023-09-07T04:46:01;99534.31;;;18.24
40199;BMP280;25906;43.536;26.068;2023-09-07T04:48:47;99529.03;;;18.15
40199;BMP280;25906;43.536;26.068;2023-09-07T04:51:32;99527.91;;;18.07
40199;BMP280;25906;43.536;26.068;2023-09-07T04:54:18;99524.91;;;18.05
40199;BMP280;25906;43.536;26.068;2023-09-07T04:57:03;99527.66;;;18.20
40199;BMP280;25906;43.536;26.068;2023-09-07T04:59:49;99535.78;;;18.34
40199;BMP280;25906;43.536;26.068;2023-09-07T05:02:34;99524.84;;;18.47
40199;BMP280;25906;43.536;26.068;2023-09-07T05:05:25;99529.97;;;18.60
40199;BMP280;25906;43.536;26.068;2023-09-07T05:08:11;99533.91;;;18.50
40199;BMP280;25906;43.536;26.068;2023-09-07T05:11:01;99535.78;;;18.58
40199;BMP280;25906;43.536;26.068;2023-09-07T05:13:48;99537.41;;;18.79
40199;BMP280;25906;43.536;26.068;2023-09-07T05:16:33;99547.66;;;18.81
40199;BMP280;25906;43.536;26.068;2023-09-07T05:19:18;99540.97;;;19.15
40199;BMP280;25906;43.536;26.068;2023-09-07T05:22:04;99545.16;;;19.16
40199;BMP280;25906;43.536;26.068;2023-09-07T05:24:50;99542.16;;;19.43
40199;BMP280;25906;43.536;26.068;2023-09-07T05:27:35;99542.63;;;19.56
40199;BMP280;25906;43.536;26.068;2023-09-07T05:30:21;99540.72;;;19.42
40199;BMP280;25906;43.536;26.068;2023-09-07T05:33:06;99544.13;;;19.57
40199;BMP280;25906;43.536;26.068;2023-09-07T05:35:52;99546.84;;;19.77
40199;BMP280;25906;43.536;26.068;2023-09-07T05:38:37;99545.84;;;19.89
40199;BMP280;25906;43.536;26.068;2023-09-07T05:41:23;99550.41;;;20.03
40199;BMP280;25906;43.536;26.068;2023-09-07T05:44:08;99544.66;;;20.11
40199;BMP280;25906;43.536;26.068;2023-09-07T05:46:54;99552.00;;;19.95
40199;BMP280;25906;43.536;26.068;2023-09-07T05:49:39;99560.78;;;20.11
40199;BMP280;25906;43.536;26.068;2023-09-07T05:52:25;99556.16;;;20.31
40199;BMP280;25906;43.536;26.068;2023-09-07T05:55:10;99556.91;;;20.32
40199;BMP280;25906;43.536;26.068;2023-09-07T05:57:57;99554.66;;;20.50
40199;BMP280;25906;43.536;26.068;2023-09-07T06:00:42;99557.03;;;20.43
40199;BMP280;25906;43.536;26.068;2023-09-07T06:03:28;99558.03;;;20.65
40199;BMP280;25906;43.536;26.068;2023-09-07T06:06:13;99557.47;;;20.82
40199;BMP280;25906;43.536;26.068;2023-09-07T06:08:59;99558.34;;;20.93
40199;BMP280;25906;43.536;26.068;2023-09-07T06:11:44;99566.91;;;20.97
40199;BMP280;25906;43.536;26.068;2023-09-07T06:14:30;99569.28;;;21.15
40199;BMP280;25906;43.536;26.068;2023-09-07T06:17:15;99565.16;;;21.20
40199;BMP280;25906;43.536;26.068;2023-09-07T06:20:02;99566.09;;;21.43
40199;BMP280;25906;43.536;26.068;2023-09-07T06:22:48;99559.16;;;21.31
40199;BMP280;25906;43.536;26.068;2023-09-07T06:25:34;99558.84;;;21.60
40199;BMP280;25906;43.536;26.068;2023-09-07T06:28:19;99564.84;;;21.75
40199;BMP280;25906;43.536;26.068;2023-09-07T06:31:05;99567.03;;;21.40
40199;BMP280;25906;43.536;26.068;2023-09-07T06:33:50;99565.16;;;21.51
40199;BMP280;25906;43.536;26.068;2023-09-07T06:36:36;99569.50;;;21.74
40199;BMP280;25906;43.536;26.068;2023-09-07T06:39:21;99563.63;;;21.70
40199;BMP280;25906;43.536;26.068;2023-09-07T06:42:07;99569.22;;;22.15
40199;BMP280;25906;43.536;26.068;2023-09-07T06:44:52;99571.44;;;22.16
40199;BMP280;25906;43.536;26.068;2023-09-07T06:47:38;99567.53;;;22.17
40199;BMP280;25906;43.536;26.068;2023-09-07T06:50:23;99569.56;;;22.39
40199;BMP280;25906;43.536;26.068;2023-09-07T06:53:09;99571.81;;;22.46
40199;BMP280;25906;43.536;26.068;2023-09-07T06:55:58;99569.19;;;22.68
40199;BMP280;25906;43.536;26.068;2023-09-07T06:58:44;99575.28;;;22.58
40199;BMP280;25906;43.536;26.068;2023-09-07T07:01:29;99566.03;;;22.92
40199;BMP280;25906;43.536;26.068;2023-09-07T07:04:15;99571.66;;;22.83
40199;BMP280;25906;43.536;26.068;2023-09-07T07:07:00;99572.66;;;22.74
40199;BMP280;25906;43.536;26.068;2023-09-07T07:09:49;99579.56;;;23.14
40199;BMP280;25906;43.536;26.068;2023-09-07T07:12:35;99567.03;;;23.44
40199;BMP280;25906;43.536;26.068;2023-09-07T07:15:23;99575.13;;;23.44
40199;BMP280;25906;43.536;26.068;2023-09-07T07:18:08;99578.56;;;23.34
40199;BMP280;25906;43.536;26.068;2023-09-07T07:20:54;99572.41;;;23.66
40199;BMP280;25906;43.536;26.068;2023-09-07T07:23:39;99574.06;;;23.92
40199;BMP280;25906;43.536;26.068;2023-09-07T07:26:25;99574.78;;;23.92
40199;BMP280;25906;43.536;26.068;2023-09-07T07:29:10;99570.31;;;24.06
40199;BMP280;25906;43.536;26.068;2023-09-07T07:31:56;99569.69;;;24.29
40199;BMP280;25906;43.536;26.068;2023-09-07T07:34:41;99570.09;;;23.98
40199;BMP280;25906;43.536;26.068;2023-09-07T07:37:28;99565.16;;;24.54
40199;BMP280;25906;43.536;26.068;2023-09-07T07:40:13;99568.22;;;24.28
40199;BMP280;25906;43.536;26.068;2023-09-07T07:42:59;99566.84;;;24.57
40199;BMP280;25906;43.536;26.068;2023-09-07T07:45:44;99575.25;;;24.83
40199;BMP280;25906;43.536;26.068;2023-09-07T07:48:30;99564.97;;;24.82
40199;BMP280;25906;43.536;26.068;2023-09-07T07:51:15;99578.38;;;24.98
40199;BMP280;25906;43.536;26.068;2023-09-07T07:54:01;99572.22;;;24.98
40199;BMP280;25906;43.536;26.068;2023-09-07T07:56:46;99578.72;;;24.84
40199;BMP280;25906;43.536;26.068;2023-09-07T07:59:33;99565.72;;;25.12
40199;BMP280;25906;43.536;26.068;2023-09-07T08:02:19;99565.81;;;25.25
40199;BMP280;25906;43.536;26.068;2023-09-07T08:05:05;99560.59;;;25.57
40199;BMP280;25906;43.536;26.068;2023-09-07T08:07:51;99564.16;;;25.89
40199;BMP280;25906;43.536;26.068;2023-09-07T08:10:38;99566.16;;;25.64
40199;BMP280;25906;43.536;26.068;2023-09-07T08:13:25;99555.47;;;25.72
40199;BMP280;25906;43.536;26.068;2023-09-07T08:16:11;99546.44;;;26.07
40199;BMP280;25906;43.536;26.068;2023-09-07T08:18:56;99550.22;;;25.98
40199;BMP280;25906;43.536;26.068;2023-09-07T08:21:42;99549.16;;;26.07
40199;BMP280;25906;43.536;26.068;2023-09-07T08:24:27;99548.09;;;26.47
40199;BMP280;25906;43.536;26.068;2023-09-07T08:27:13;99546.88;;;26.61
40199;BMP280;25906;43.536;26.068;2023-09-07T08:30:03;99542.34;;;26.50
40199;BMP280;25906;43.536;26.068;2023-09-07T08:32:51;99548.81;;;26.47
40199;BMP280;25906;43.536;26.068;2023-09-07T08:35:36;99540.13;;;26.17
40199;BMP280;25906;43.536;26.068;2023-09-07T08:38:29;99550.69;;;26.71
40199;BMP280;25906;43.536;26.068;2023-09-07T08:41:16;99540.59;;;26.66
40199;BMP280;25906;43.536;26.068;2023-09-07T08:44:01;99532.56;;;26.61
40199;BMP280;25906;43.536;26.068;2023-09-07T08:46:49;99538.31;;;27.02
40199;BMP280;25906;43.536;26.068;2023-09-07T08:49:35;99527.09;;;26.79
40199;BMP280;25906;43.536;26.068;2023-09-07T08:52:21;99528.47;;;26.99
40199;BMP280;25906;43.536;26.068;2023-09-07T08:55:07;99516.03;;;27.16
40199;BMP280;25906;43.536;26.068;2023-09-07T08:57:53;99522.81;;;26.84
40199;BMP280;25906;43.536;26.068;2023-09-07T09:00:38;99531.75;;;27.37
40199;BMP280;25906;43.536;26.068;2023-09-07T09:03:27;99520.72;;;27.29
40199;BMP280;25906;43.536;26.068;2023-09-07T09:06:16;99515.06;;;27.53
40199;BMP280;25906;43.536;26.068;2023-09-07T09:09:03;99519.06;;;27.26
40199;BMP280;25906;43.536;26.068;2023-09-07T09:11:52;99508.59;;;27.30
40199;BMP280;25906;43.536;26.068;2023-09-07T09:14:41;99511.53;;;27.58
40199;BMP280;25906;43.536;26.068;2023-09-07T09:17:27;99503.34;;;27.71
40199;BMP280;25906;43.536;26.068;2023-09-07T09:23:08;99511.22;;;27.22
40199;BMP280;25906;43.536;26.068;2023-09-07T09:25:53;99511.34;;;27.43
40199;BMP280;25906;43.536;26.068;2023-09-07T09:28:39;99522.38;;;27.71
40199;BMP280;25906;43.536;26.068;2023-09-07T09:31:24;99505.75;;;27.62
40199;BMP280;25906;43.536;26.068;2023-09-07T09:34:10;99505.75;;;27.75
40199;BMP280;25906;43.536;26.068;2023-09-07T09:36:55;99494.59;;;27.52
40199;BMP280;25906;43.536;26.068;2023-09-07T09:39:41;99492.78;;;27.68
40199;BMP280;25906;43.536;26.068;2023-09-07T09:42:27;99502.75;;;27.86
40199;BMP280;25906;43.536;26.068;2023-09-07T09:45:12;99488.47;;;27.72
40199;BMP280;25906;43.536;26.068;2023-09-07T09:47:58;99493.63;;;27.96
40199;BMP280;25906;43.536;26.068;2023-09-07T09:50:49;99490.03;;;28.01
40199;BMP280;25906;43.536;26.068;2023-09-07T09:53:36;99480.06;;;28.25
40199;BMP280;25906;43.536;26.068;2023-09-07T09:56:21;99484.44;;;28.69
40199;BMP280;25906;43.536;26.068;2023-09-07T09:59:07;99479.72;;;29.05
40199;BMP280;25906;43.536;26.068;2023-09-07T10:01:53;99480.13;;;28.81
40199;BMP280;25906;43.536;26.068;2023-09-07T10:04:39;99479.91;;;29.00
40199;BMP280;25906;43.536;26.068;2023-09-07T10:07:29;99475.69;;;28.42
40199;BMP280;25906;43.536;26.068;2023-09-07T10:10:15;99471.25;;;28.52
40199;BMP280;25906;43.536;26.068;2023-09-07T10:13:00;99468.25;;;28.99
40199;BMP280;25906;43.536;26.068;2023-09-07T10:15:46;99468.13;;;28.76
40199;BMP280;25906;43.536;26.068;2023-09-07T10:18:36;99468.34;;;28.30
40199;BMP280;25906;43.536;26.068;2023-09-07T10:21:24;99475.88;;;27.82
40199;BMP280;25906;43.536;26.068;2023-09-07T10:24:11;99471.91;;;28.45
40199;BMP280;25906;43.536;26.068;2023-09-07T10:29:50;99468.28;;;28.22
40199;BMP280;25906;43.536;26.068;2023-09-07T10:32:38;99456.63;;;28.01
40199;BMP280;25906;43.536;26.068;2023-09-07T10:35:27;99471.63;;;27.94
40199;BMP280;25906;43.536;26.068;2023-09-07T10:38:20;99461.63;;;28.31
40199;BMP280;25906;43.536;26.068;2023-09-07T10:41:06;99453.84;;;28.35
40199;BMP280;25906;43.536;26.068;2023-09-07T10:43:54;99449.38;;;28.73
40199;BMP280;25906;43.536;26.068;2023-09-07T10:46:40;99442.28;;;28.98
40199;BMP280;25906;43.536;26.068;2023-09-07T10:49:25;99437.59;;;29.14
40199;BMP280;25906;43.536;26.068;2023-09-07T10:52:11;99436.94;;;28.57
40199;BMP280;25906;43.536;26.068;2023-09-07T10:54:56;99441.50;;;28.34
40199;BMP280;25906;43.536;26.068;2023-09-07T10:57:45;99440.53;;;28.80
40199;BMP280;25906;43.536;26.068;2023-09-07T11:00:31;99432.25;;;28.93
40199;BMP280;25906;43.536;26.068;2023-09-07T11:03:17;99432.63;;;28.97
40199;BMP280;25906;43.536;26.068;2023-09-07T11:06:09;99432.56;;;29.25
40199;BMP280;25906;43.536;26.068;2023-09-07T11:08:55;99426.69;;;29.14
40199;BMP280;25906;43.536;26.068;2023-09-07T11:11:46;99426.72;;;28.78
40199;BMP280;25906;43.536;26.068;2023-09-07T11:14:32;99409.75;;;29.00
40199;BMP280;25906;43.536;26.068;2023-09-07T11:17:18;99420.78;;;28.87
40199;BMP280;25906;43.536;26.068;2023-09-07T11:20:05;99416.13;;;28.95
40199;BMP280;25906;43.536;26.068;2023-09-07T11:22:51;99412.06;;;28.89
40199;BMP280;25906;43.536;26.068;2023-09-07T11:25:38;99410.50;;;29.01
40199;BMP280;25906;43.536;26.068;2023-09-07T11:28:23;99415.75;;;28.14
40199;BMP280;25906;43.536;26.068;2023-09-07T11:31:10;99404.28;;;28.64
40199;BMP280;25906;43.536;26.068;2023-09-07T11:33:55;99410.69;;;29.10
40199;BMP280;25906;43.536;26.068;2023-09-07T11:36:42;99405.47;;;29.27
40199;BMP280;25906;43.536;26.068;2023-09-07T11:39:28;99408.53;;;29.16
40199;BMP280;25906;43.536;26.068;2023-09-07T11:42:14;99390.97;;;29.32
40199;BMP280;25906;43.536;26.068;2023-09-07T11:44:59;99386.94;;;29.18
40199;BMP280;25906;43.536;26.068;2023-09-07T11:47:45;99404.25;;;28.57
40199;BMP280;25906;43.536;26.068;2023-09-07T11:50:31;99406.31;;;28.36
40199;BMP280;25906;43.536;26.068;2023-09-07T11:53:17;99399.69;;;28.88
40199;BMP280;25906;43.536;26.068;2023-09-07T11:56:02;99391.78;;;29.12
40199;BMP280;25906;43.536;26.068;2023-09-07T11:58:48;99386.69;;;29.01
40199;BMP280;25906;43.536;26.068;2023-09-07T12:01:33;99382.50;;;29.08
40199;BMP280;25906;43.536;26.068;2023-09-07T12:04:19;99381.56;;;28.98
40199;BMP280;25906;43.536;26.068;2023-09-07T12:07:04;99376.13;;;28.98
40199;BMP280;25906;43.536;26.068;2023-09-07T12:09:50;99370.19;;;29.22
40199;BMP280;25906;43.536;26.068;2023-09-07T12:12:36;99379.72;;;28.85
40199;BMP280;25906;43.536;26.068;2023-09-07T12:15:28;99383.06;;;29.14
40199;BMP280;25906;43.536;26.068;2023-09-07T12:18:14;99379.50;;;29.34
40199;BMP280;25906;43.536;26.068;2023-09-07T12:21:18;99383.56;;;29.05
40199;BMP280;25906;43.536;26.068;2023-09-07T12:24:04;99380.38;;;29.29
40199;BMP280;25906;43.536;26.068;2023-09-07T12:26:50;99373.25;;;29.03
40199;BMP280;25906;43.536;26.068;2023-09-07T12:29:36;99374.34;;;28.36
40199;BMP280;25906;43.536;26.068;2023-09-07T12:32:21;99367.91;;;28.54
40199;BMP280;25906;43.536;26.068;2023-09-07T12:35:07;99366.38;;;28.74
40199;BMP280;25906;43.536;26.068;2023-09-07T12:37:53;99365.22;;;29.05
40199;BMP280;25906;43.536;26.068;2023-09-07T12:40:39;99364.50;;;29.05
40199;BMP280;25906;43.536;26.068;2023-09-07T12:43:24;99367.72;;;28.88
40199;BMP280;25906;43.536;26.068;2023-09-07T12:46:10;99373.28;;;28.75
40199;BMP280;25906;43.536;26.068;2023-09-07T12:48:55;99363.34;;;28.85
40199;BMP280;25906;43.536;26.068;2023-09-07T12:51:41;99365.94;;;28.98
40199;BMP280;25906;43.536;26.068;2023-09-07T12:54:27;99363.03;;;29.04
40199;BMP280;25906;43.536;26.068;2023-09-07T12:57:13;99365.47;;;28.36
40199;BMP280;25906;43.536;26.068;2023-09-07T12:59:58;99364.91;;;28.73
40199;BMP280;25906;43.536;26.068;2023-09-07T13:02:44;99359.94;;;28.92
40199;BMP280;25906;43.536;26.068;2023-09-07T13:05:30;99365.84;;;29.26
40199;BMP280;25906;43.536;26.068;2023-09-07T13:08:15;99364.53;;;29.20
40199;BMP280;25906;43.536;26.068;2023-09-07T13:11:01;99363.53;;;28.87
40199;BMP280;25906;43.536;26.068;2023-09-07T13:13:46;99359.47;;;28.73
40199;BMP280;25906;43.536;26.068;2023-09-07T13:16:32;99365.91;;;28.91
40199;BMP280;25906;43.536;26.068;2023-09-07T13:19:17;99363.81;;;29.19
40199;BMP280;25906;43.536;26.068;2023-09-07T13:22:03;99362.00;;;29.14
40199;BMP280;25906;43.536;26.068;2023-09-07T13:24:48;99365.78;;;29.04
40199;BMP280;25906;43.536;26.068;2023-09-07T13:27:34;99362.94;;;28.81
40199;BMP280;25906;43.536;26.068;2023-09-07T13:30:19;99363.34;;;28.85
40199;BMP280;25906;43.536;26.068;2023-09-07T13:33:05;99356.53;;;29.07
40199;BMP280;25906;43.536;26.068;2023-09-07T13:35:50;99351.81;;;29.15
40199;BMP280;25906;43.536;26.068;2023-09-07T13:38:36;99354.00;;;29.09
40199;BMP280;25906;43.536;26.068;2023-09-07T13:41:22;99353.31;;;28.80
40199;BMP280;25906;43.536;26.068;2023-09-07T13:44:08;99354.91;;;28.68
40199;BMP280;25906;43.536;26.068;2023-09-07T13:46:53;99361.69;;;28.82
40199;BMP280;25906;43.536;26.068;2023-09-07T13:49:40;99352.03;;;28.81
40199;BMP280;25906;43.536;26.068;2023-09-07T13:52:25;99356.00;;;28.72
40199;BMP280;25906;43.536;26.068;2023-09-07T13:55:11;99351.72;;;28.49
40199;BMP280;25906;43.536;26.068;2023-09-07T13:57:57;99345.63;;;28.63
40199;BMP280;25906;43.536;26.068;2023-09-07T14:00:42;99353.00;;;28.48
40199;BMP280;25906;43.536;26.068;2023-09-07T14:03:28;99341.41;;;28.55
40199;BMP280;25906;43.536;26.068;2023-09-07T14:06:13;99350.13;;;28.53
40199;BMP280;25906;43.536;26.068;2023-09-07T14:08:59;99350.47;;;28.50
40199;BMP280;25906;43.536;26.068;2023-09-07T14:11:45;99348.81;;;28.19
40199;BMP280;25906;43.536;26.068;2023-09-07T14:14:30;99344.50;;;28.23
40199;BMP280;25906;43.536;26.068;2023-09-07T14:17:16;99338.50;;;28.25
40199;BMP280;25906;43.536;26.068;2023-09-07T14:20:01;99349.38;;;28.25
40199;BMP280;25906;43.536;26.068;2023-09-07T14:22:47;99354.94;;;28.12
40199;BMP280;25906;43.536;26.068;2023-09-07T14:25:32;99348.03;;;28.11
40199;BMP280;25906;43.536;26.068;2023-09-07T14:28:18;99349.69;;;28.14
40199;BMP280;25906;43.536;26.068;2023-09-07T14:31:04;99338.13;;;28.21
40199;BMP280;25906;43.536;26.068;2023-09-07T14:33:51;99338.81;;;28.14
40199;BMP280;25906;43.536;26.068;2023-09-07T14:36:37;99340.38;;;28.09
40199;BMP280;25906;43.536;26.068;2023-09-07T14:39:23;99338.63;;;28.12
40199;BMP280;25906;43.536;26.068;2023-09-07T14:42:09;99339.03;;;27.95
40199;BMP280;25906;43.536;26.068;2023-09-07T14:44:59;99330.66;;;27.72
40199;BMP280;25906;43.536;26.068;2023-09-07T14:47:47;99334.72;;;27.58
40199;BMP280;25906;43.536;26.068;2023-09-07T14:50:32;99332.66;;;27.51
40199;BMP280;25906;43.536;26.068;2023-09-07T14:53:18;99337.69;;;27.47
40199;BMP280;25906;43.536;26.068;2023-09-07T14:56:03;99333.84;;;27.43
40199;BMP280;25906;43.536;26.068;2023-09-07T14:58:49;99328.53;;;27.37
40199;BMP280;25906;43.536;26.068;2023-09-07T15:01:36;99329.59;;;27.34
40199;BMP280;25906;43.536;26.068;2023-09-07T15:04:21;99337.66;;;27.26
40199;BMP280;25906;43.536;26.068;2023-09-07T15:07:07;99325.44;;;27.20
40199;BMP280;25906;43.536;26.068;2023-09-07T15:09:52;99326.63;;;27.11
40199;BMP280;25906;43.536;26.068;2023-09-07T15:12:38;99328.53;;;27.03
40199;BMP280;25906;43.536;26.068;2023-09-07T15:15:24;99338.13;;;27.04
40199;BMP280;25906;43.536;26.068;2023-09-07T15:18:10;99338.69;;;26.90
40199;BMP280;25906;43.536;26.068;2023-09-07T15:20:55;99344.22;;;26.84
40199;BMP280;25906;43.536;26.068;2023-09-07T15:23:42;99342.03;;;26.83
40199;BMP280;25906;43.536;26.068;2023-09-07T15:26:28;99337.66;;;26.80
40199;BMP280;25906;43.536;26.068;2023-09-07T15:29:14;99339.19;;;26.75
40199;BMP280;25906;43.536;26.068;2023-09-07T15:32:00;99343.28;;;26.69
40199;BMP280;25906;43.536;26.068;2023-09-07T15:34:45;99346.13;;;26.63
40199;BMP280;25906;43.536;26.068;2023-09-07T15:37:31;99332.44;;;26.56
40199;BMP280;25906;43.536;26.068;2023-09-07T15:40:16;99349.53;;;26.50
40199;BMP280;25906;43.536;26.068;2023-09-07T15:43:02;99345.06;;;26.53
40199;BMP280;25906;43.536;26.068;2023-09-07T15:45:47;99338.91;;;26.39
40199;BMP280;25906;43.536;26.068;2023-09-07T15:48:33;99350.56;;;26.34